sensor_id;sensor_type;location;lat;lon;timestamp;P1;durP1;ratioP1;P2;durP2;ratioP2
40162;SDS011;25881;47.462;19.304;2023-04-03T00:02:09;7.23;;;4.23;;
40162;SDS011;25881;47.462;19.304;2023-04-03T00:04:34;6.53;;;5.07;;
40162;SDS011;25881;47.462;19.304;2023-04-03T00:06:59;9.35;;;5.07;;
40162;SDS011;25881;47.462;19.304;2023-04-03T00:09:25;6.45;;;4.65;;
40162;SDS011;25881;47.462;19.304;2023-04-03T00:11:51;6.57;;;5.00;;
40162;SDS011;25881;47.462;19.304;2023-04-03T00:14:16;6.87;;;4.60;;
40162;SDS011;25881;47.462;19.304;2023-04-03T00:16:41;6.17;;;4.80;;
40162;SDS011;25881;47.462;19.304;2023-04-03T00:19:06;6.53;;;5.45;;
40162;SDS011;25881;47.462;19.304;2023-04-03T00:21:32;7.35;;;5.65;;
40162;SDS011;25881;47.462;19.304;2023-04-03T00:23:57;6.72;;;5.20;;
40162;SDS011;25881;47.462;19.304;2023-04-03T00:26:22;7.77;;;5.10;;
40162;SDS011;25881;47.462;19.304;2023-04-03T00:28:48;9.07;;;5.50;;
40162;SDS011;25881;47.462;19.304;2023-04-03T00:31:16;7.03;;;5.60;;
40162;SDS011;25881;47.462;19.304;2023-04-03T00:36:07;7.05;;;5.00;;
40162;SDS011;25881;47.462;19.304;2023-04-03T00:38:33;6.95;;;5.32;;
40162;SDS011;25881;47.462;19.304;2023-04-03T00:40:59;7.27;;;5.87;;
40162;SDS011;25881;47.462;19.304;2023-04-03T00:43:24;7.90;;;5.60;;
40162;SDS011;25881;47.462;19.304;2023-04-03T00:45:52;8.95;;;5.75;;
40162;SDS011;25881;47.462;19.304;2023-04-03T00:48:22;8.73;;;5.90;;
40162;SDS011;25881;47.462;19.304;2023-04-03T00:50:48;8.70;;;5.47;;
40162;SDS011;25881;47.462;19.304;2023-04-03T00:53:17;6.50;;;5.03;;
40162;SDS011;25881;47.462;19.304;2023-04-03T00:55:43;7.38;;;5.82;;
40162;SDS011;25881;47.462;19.304;2023-04-03T00:58:08;7.65;;;6.07;;
40162;SDS011;25881;47.462;19.304;2023-04-03T01:00:35;8.23;;;5.95;;
40162;SDS011;25881;47.462;19.304;2023-04-03T01:03:01;6.63;;;5.03;;
40162;SDS011;25881;47.462;19.304;2023-04-03T01:05:27;8.75;;;6.38;;
40162;SDS011;25881;47.462;19.304;2023-04-03T01:07:52;8.53;;;6.57;;
40162;SDS011;25881;47.462;19.304;2023-04-03T01:10:18;7.57;;;5.60;;
40162;SDS011;25881;47.462;19.304;2023-04-03T01:12:45;8.43;;;6.22;;
40162;SDS011;25881;47.462;19.304;2023-04-03T01:15:12;6.85;;;5.93;;
40162;SDS011;25881;47.462;19.304;2023-04-03T01:17:52;8.00;;;6.30;;
40162;SDS011;25881;47.462;19.304;2023-04-03T01:20:31;10.68;;;6.80;;
40162;SDS011;25881;47.462;19.304;2023-04-03T01:25:39;9.90;;;6.78;;
40162;SDS011;25881;47.462;19.304;2023-04-03T01:28:05;9.60;;;7.43;;
40162;SDS011;25881;47.462;19.304;2023-04-03T01:30:32;11.30;;;8.57;;
40162;SDS011;25881;47.462;19.304;2023-04-03T01:32:58;11.25;;;7.70;;
40162;SDS011;25881;47.462;19.304;2023-04-03T01:35:23;9.27;;;7.38;;
40162;SDS011;25881;47.462;19.304;2023-04-03T01:37:49;9.65;;;7.45;;
40162;SDS011;25881;47.462;19.304;2023-04-03T01:40:14;9.48;;;7.10;;
40162;SDS011;25881;47.462;19.304;2023-04-03T01:42:40;11.73;;;8.23;;
40162;SDS011;25881;47.462;19.304;2023-04-03T01:45:05;9.93;;;7.88;;
40162;SDS011;25881;47.462;19.304;2023-04-03T01:47:31;9.52;;;7.90;;
40162;SDS011;25881;47.462;19.304;2023-04-03T01:49:56;13.00;;;9.15;;
40162;SDS011;25881;47.462;19.304;2023-04-03T01:52:21;13.23;;;8.63;;
40162;SDS011;25881;47.462;19.304;2023-04-03T01:54:46;11.73;;;8.47;;
40162;SDS011;25881;47.462;19.304;2023-04-03T01:57:11;11.93;;;8.67;;
40162;SDS011;25881;47.462;19.304;2023-04-03T01:59:38;12.45;;;8.40;;
40162;SDS011;25881;47.462;19.304;2023-04-03T02:02:03;11.05;;;8.35;;
40162;SDS011;25881;47.462;19.304;2023-04-03T02:04:29;11.40;;;8.60;;
40162;SDS011;25881;47.462;19.304;2023-04-03T02:06:54;11.70;;;8.40;;
40162;SDS011;25881;47.462;19.304;2023-04-03T02:09:19;10.30;;;8.48;;
40162;SDS011;25881;47.462;19.304;2023-04-03T02:11:45;10.17;;;7.60;;
40162;SDS011;25881;47.462;19.304;2023-04-03T02:14:10;9.30;;;7.32;;
40162;SDS011;25881;47.462;19.304;2023-04-03T02:16:35;10.07;;;8.17;;
40162;SDS011;25881;47.462;19.304;2023-04-03T02:19:00;10.83;;;8.40;;
40162;SDS011;25881;47.462;19.304;2023-04-03T02:21:26;9.80;;;8.30;;
40162;SDS011;25881;47.462;19.304;2023-04-03T02:23:51;10.43;;;7.63;;
40162;SDS011;25881;47.462;19.304;2023-04-03T02:26:16;10.20;;;7.72;;
40162;SDS011;25881;47.462;19.304;2023-04-03T02:28:42;10.70;;;8.45;;
40162;SDS011;25881;47.462;19.304;2023-04-03T02:31:07;10.40;;;7.90;;
40162;SDS011;25881;47.462;19.304;2023-04-03T02:33:33;9.13;;;7.90;;
40162;SDS011;25881;47.462;19.304;2023-04-03T02:35:59;11.73;;;8.60;;
40162;SDS011;25881;47.462;19.304;2023-04-03T02:38:24;10.95;;;8.52;;
40162;SDS011;25881;47.462;19.304;2023-04-03T02:40:50;10.38;;;7.82;;
40162;SDS011;25881;47.462;19.304;2023-04-03T02:43:16;12.82;;;8.75;;
40162;SDS011;25881;47.462;19.304;2023-04-03T02:45:41;9.73;;;7.40;;
40162;SDS011;25881;47.462;19.304;2023-04-03T02:48:06;10.87;;;8.97;;
40162;SDS011;25881;47.462;19.304;2023-04-03T02:50:32;11.47;;;7.80;;
40162;SDS011;25881;47.462;19.304;2023-04-03T02:52:57;10.80;;;7.80;;
40162;SDS011;25881;47.462;19.304;2023-04-03T02:55:22;9.50;;;7.50;;
40162;SDS011;25881;47.462;19.304;2023-04-03T02:57:48;9.75;;;7.38;;
40162;SDS011;25881;47.462;19.304;2023-04-03T03:00:13;9.30;;;7.47;;
40162;SDS011;25881;47.462;19.304;2023-04-03T03:02:39;10.57;;;7.32;;
40162;SDS011;25881;47.462;19.304;2023-04-03T03:05:05;8.80;;;6.75;;
40162;SDS011;25881;47.462;19.304;2023-04-03T03:07:30;9.18;;;7.07;;
40162;SDS011;25881;47.462;19.304;2023-04-03T03:09:56;10.27;;;7.77;;
40162;SDS011;25881;47.462;19.304;2023-04-03T03:12:21;8.83;;;6.83;;
40162;SDS011;25881;47.462;19.304;2023-04-03T03:14:47;9.70;;;7.55;;
40162;SDS011;25881;47.462;19.304;2023-04-03T03:17:12;9.55;;;6.97;;
40162;SDS011;25881;47.462;19.304;2023-04-03T03:19:37;9.00;;;6.37;;
40162;SDS011;25881;47.462;19.304;2023-04-03T03:22:03;8.60;;;6.75;;
40162;SDS011;25881;47.462;19.304;2023-04-03T03:24:28;9.63;;;6.60;;
40162;SDS011;25881;47.462;19.304;2023-04-03T03:26:53;7.57;;;5.87;;
40162;SDS011;25881;47.462;19.304;2023-04-03T03:29:19;9.83;;;6.63;;
40162;SDS011;25881;47.462;19.304;2023-04-03T03:31:44;7.72;;;5.93;;
40162;SDS011;25881;47.462;19.304;2023-04-03T03:34:09;9.38;;;6.68;;
40162;SDS011;25881;47.462;19.304;2023-04-03T03:36:34;7.53;;;5.68;;
40162;SDS011;25881;47.462;19.304;2023-04-03T03:39:00;8.60;;;6.30;;
40162;SDS011;25881;47.462;19.304;2023-04-03T03:41:25;8.23;;;5.80;;
40162;SDS011;25881;47.462;19.304;2023-04-03T03:43:51;8.88;;;6.20;;
40162;SDS011;25881;47.462;19.304;2023-04-03T03:46:16;7.35;;;6.13;;
40162;SDS011;25881;47.462;19.304;2023-04-03T03:48:41;7.85;;;5.70;;
40162;SDS011;25881;47.462;19.304;2023-04-03T03:51:07;8.57;;;6.70;;
40162;SDS011;25881;47.462;19.304;2023-04-03T03:53:32;8.60;;;5.35;;
40162;SDS011;25881;47.462;19.304;2023-04-03T03:55:57;7.60;;;5.72;;
40162;SDS011;25881;47.462;19.304;2023-04-03T03:58:22;6.72;;;5.25;;
40162;SDS011;25881;47.462;19.304;2023-04-03T04:00:48;6.85;;;5.25;;
40162;SDS011;25881;47.462;19.304;2023-04-03T04:03:13;7.70;;;5.50;;
40162;SDS011;25881;47.462;19.304;2023-04-03T04:05:38;7.23;;;5.57;;
40162;SDS011;25881;47.462;19.304;2023-04-03T04:08:03;8.00;;;5.63;;
40162;SDS011;25881;47.462;19.304;2023-04-03T04:10:29;8.20;;;6.03;;
40162;SDS011;25881;47.462;19.304;2023-04-03T04:12:54;8.93;;;6.07;;
40162;SDS011;25881;47.462;19.304;2023-04-03T04:15:19;7.93;;;5.95;;
40162;SDS011;25881;47.462;19.304;2023-04-03T04:17:46;6.78;;;5.22;;
40162;SDS011;25881;47.462;19.304;2023-04-03T04:20:11;10.18;;;6.65;;
40162;SDS011;25881;47.462;19.304;2023-04-03T04:22:37;7.10;;;5.63;;
40162;SDS011;25881;47.462;19.304;2023-04-03T04:25:04;8.18;;;5.95;;
40162;SDS011;25881;47.462;19.304;2023-04-03T04:27:29;8.27;;;6.03;;
40162;SDS011;25881;47.462;19.304;2023-04-03T04:29:54;10.50;;;6.37;;
40162;SDS011;25881;47.462;19.304;2023-04-03T04:32:20;9.23;;;5.80;;
40162;SDS011;25881;47.462;19.304;2023-04-03T04:34:45;9.07;;;6.50;;
40162;SDS011;25881;47.462;19.304;2023-04-03T04:37:10;9.27;;;6.27;;
40162;SDS011;25881;47.462;19.304;2023-04-03T04:39:35;9.03;;;6.30;;
40162;SDS011;25881;47.462;19.304;2023-04-03T04:42:00;9.60;;;6.63;;
40162;SDS011;25881;47.462;19.304;2023-04-03T04:44:26;9.50;;;6.43;;
40162;SDS011;25881;47.462;19.304;2023-04-03T04:46:51;7.57;;;6.17;;
40162;SDS011;25881;47.462;19.304;2023-04-03T04:49:16;8.97;;;7.13;;
40162;SDS011;25881;47.462;19.304;2023-04-03T04:51:41;8.77;;;6.43;;
40162;SDS011;25881;47.462;19.304;2023-04-03T04:54:07;8.70;;;6.27;;
40162;SDS011;25881;47.462;19.304;2023-04-03T04:56:32;11.63;;;6.68;;
40162;SDS011;25881;47.462;19.304;2023-04-03T04:58:57;9.13;;;6.60;;
40162;SDS011;25881;47.462;19.304;2023-04-03T05:01:22;13.37;;;7.20;;
40162;SDS011;25881;47.462;19.304;2023-04-03T05:03:48;11.30;;;6.72;;
40162;SDS011;25881;47.462;19.304;2023-04-03T05:06:13;10.07;;;7.63;;
40162;SDS011;25881;47.462;19.304;2023-04-03T05:08:38;11.55;;;7.63;;
40162;SDS011;25881;47.462;19.304;2023-04-03T05:11:04;11.00;;;7.47;;
40162;SDS011;25881;47.462;19.304;2023-04-03T05:13:29;8.63;;;6.68;;
40162;SDS011;25881;47.462;19.304;2023-04-03T05:15:54;10.77;;;7.18;;
40162;SDS011;25881;47.462;19.304;2023-04-03T05:18:20;10.95;;;7.53;;
40162;SDS011;25881;47.462;19.304;2023-04-03T05:20:47;10.47;;;7.03;;
40162;SDS011;25881;47.462;19.304;2023-04-03T05:23:12;10.32;;;7.38;;
40162;SDS011;25881;47.462;19.304;2023-04-03T05:25:38;10.30;;;7.23;;
40162;SDS011;25881;47.462;19.304;2023-04-03T05:28:03;11.63;;;7.00;;
40162;SDS011;25881;47.462;19.304;2023-04-03T05:30:28;7.93;;;5.33;;
40162;SDS011;25881;47.462;19.304;2023-04-03T05:32:54;8.18;;;5.88;;
40162;SDS011;25881;47.462;19.304;2023-04-03T05:35:19;10.18;;;5.95;;
40162;SDS011;25881;47.462;19.304;2023-04-03T05:37:44;8.87;;;6.13;;
40162;SDS011;25881;47.462;19.304;2023-04-03T05:40:10;9.47;;;5.73;;
40162;SDS011;25881;47.462;19.304;2023-04-03T05:42:35;7.18;;;5.45;;
40162;SDS011;25881;47.462;19.304;2023-04-03T05:45:00;8.80;;;5.40;;
40162;SDS011;25881;47.462;19.304;2023-04-03T05:47:25;8.43;;;5.82;;
40162;SDS011;25881;47.462;19.304;2023-04-03T05:49:51;7.60;;;5.63;;
40162;SDS011;25881;47.462;19.304;2023-04-03T05:52:26;7.38;;;5.32;;
40162;SDS011;25881;47.462;19.304;2023-04-03T05:54:52;7.70;;;5.15;;
40162;SDS011;25881;47.462;19.304;2023-04-03T05:57:18;7.53;;;5.28;;
40162;SDS011;25881;47.462;19.304;2023-04-03T05:59:43;7.03;;;5.30;;
40162;SDS011;25881;47.462;19.304;2023-04-03T06:02:10;7.65;;;5.40;;
40162;SDS011;25881;47.462;19.304;2023-04-03T06:04:36;9.57;;;5.10;;
40162;SDS011;25881;47.462;19.304;2023-04-03T06:07:01;7.67;;;5.50;;
40162;SDS011;25881;47.462;19.304;2023-04-03T06:09:27;7.80;;;5.63;;
40162;SDS011;25881;47.462;19.304;2023-04-03T06:11:56;8.15;;;5.70;;
40162;SDS011;25881;47.462;19.304;2023-04-03T06:14:23;9.27;;;5.18;;
40162;SDS011;25881;47.462;19.304;2023-04-03T06:16:48;9.77;;;5.50;;
40162;SDS011;25881;47.462;19.304;2023-04-03T06:19:14;9.38;;;5.93;;
40162;SDS011;25881;47.462;19.304;2023-04-03T06:21:40;8.10;;;5.25;;
40162;SDS011;25881;47.462;19.304;2023-04-03T06:24:05;10.85;;;5.75;;
40162;SDS011;25881;47.462;19.304;2023-04-03T06:26:31;8.57;;;5.97;;
40162;SDS011;25881;47.462;19.304;2023-04-03T06:28:56;7.45;;;5.13;;
40162;SDS011;25881;47.462;19.304;2023-04-03T06:31:21;8.50;;;5.50;;
40162;SDS011;25881;47.462;19.304;2023-04-03T06:33:47;9.05;;;4.95;;
40162;SDS011;25881;47.462;19.304;2023-04-03T06:36:12;7.70;;;5.00;;
40162;SDS011;25881;47.462;19.304;2023-04-03T06:38:38;7.53;;;4.47;;
40162;SDS011;25881;47.462;19.304;2023-04-03T06:41:03;5.88;;;4.18;;
40162;SDS011;25881;47.462;19.304;2023-04-03T06:43:28;6.15;;;4.10;;
40162;SDS011;25881;47.462;19.304;2023-04-03T06:45:56;6.38;;;4.20;;
40162;SDS011;25881;47.462;19.304;2023-04-03T06:48:21;6.18;;;4.20;;
40162;SDS011;25881;47.462;19.304;2023-04-03T06:50:46;8.03;;;4.20;;
40162;SDS011;25881;47.462;19.304;2023-04-03T06:53:11;7.30;;;4.00;;
40162;SDS011;25881;47.462;19.304;2023-04-03T06:55:37;6.57;;;4.15;;
40162;SDS011;25881;47.462;19.304;2023-04-03T06:58:02;5.83;;;4.20;;
40162;SDS011;25881;47.462;19.304;2023-04-03T07:00:28;6.32;;;4.20;;
40162;SDS011;25881;47.462;19.304;2023-04-03T07:02:53;5.90;;;4.00;;
40162;SDS011;25881;47.462;19.304;2023-04-03T07:05:19;5.93;;;4.00;;
40162;SDS011;25881;47.462;19.304;2023-04-03T07:07:44;6.50;;;4.20;;
40162;SDS011;25881;47.462;19.304;2023-04-03T07:10:10;6.05;;;4.28;;
40162;SDS011;25881;47.462;19.304;2023-04-03T07:12:36;7.07;;;3.95;;
40162;SDS011;25881;47.462;19.304;2023-04-03T07:15:02;6.05;;;3.78;;
40162;SDS011;25881;47.462;19.304;2023-04-03T07:17:28;7.35;;;4.13;;
40162;SDS011;25881;47.462;19.304;2023-04-03T07:19:53;5.07;;;3.80;;
40162;SDS011;25881;47.462;19.304;2023-04-03T07:22:18;4.72;;;3.28;;
40162;SDS011;25881;47.462;19.304;2023-04-03T07:24:43;6.07;;;4.50;;
40162;SDS011;25881;47.462;19.304;2023-04-03T07:27:09;6.27;;;3.97;;
40162;SDS011;25881;47.462;19.304;2023-04-03T07:29:34;5.53;;;3.75;;
40162;SDS011;25881;47.462;19.304;2023-04-03T07:32:00;6.05;;;4.05;;
40162;SDS011;25881;47.462;19.304;2023-04-03T07:34:26;7.35;;;4.40;;
40162;SDS011;25881;47.462;19.304;2023-04-03T07:36:51;6.20;;;3.67;;
40162;SDS011;25881;47.462;19.304;2023-04-03T07:39:17;5.43;;;3.53;;
40162;SDS011;25881;47.462;19.304;2023-04-03T07:41:42;6.20;;;3.60;;
40162;SDS011;25881;47.462;19.304;2023-04-03T07:44:07;4.90;;;3.47;;
40162;SDS011;25881;47.462;19.304;2023-04-03T07:46:35;5.55;;;3.75;;
40162;SDS011;25881;47.462;19.304;2023-04-03T07:49:00;6.28;;;3.80;;
40162;SDS011;25881;47.462;19.304;2023-04-03T07:51:25;6.17;;;3.63;;
40162;SDS011;25881;47.462;19.304;2023-04-03T07:53:51;4.57;;;3.35;;
40162;SDS011;25881;47.462;19.304;2023-04-03T07:56:17;5.07;;;3.45;;
40162;SDS011;25881;47.462;19.304;2023-04-03T07:58:42;6.82;;;3.83;;
40162;SDS011;25881;47.462;19.304;2023-04-03T08:01:09;5.43;;;3.80;;
40162;SDS011;25881;47.462;19.304;2023-04-03T08:03:34;5.38;;;3.78;;
40162;SDS011;25881;47.462;19.304;2023-04-03T08:06:03;5.80;;;3.33;;
40162;SDS011;25881;47.462;19.304;2023-04-03T08:08:29;6.72;;;4.13;;
40162;SDS011;25881;47.462;19.304;2023-04-03T08:10:55;5.25;;;3.65;;
40162;SDS011;25881;47.462;19.304;2023-04-03T08:13:21;6.15;;;3.90;;
40162;SDS011;25881;47.462;19.304;2023-04-03T08:15:46;5.35;;;3.30;;
40162;SDS011;25881;47.462;19.304;2023-04-03T08:18:12;5.03;;;3.75;;
40162;SDS011;25881;47.462;19.304;2023-04-03T08:20:38;6.07;;;4.35;;
40162;SDS011;25881;47.462;19.304;2023-04-03T08:23:05;5.50;;;4.20;;
40162;SDS011;25881;47.462;19.304;2023-04-03T08:25:30;5.68;;;3.67;;
40162;SDS011;25881;47.462;19.304;2023-04-03T08:27:55;6.05;;;4.15;;
40162;SDS011;25881;47.462;19.304;2023-04-03T08:30:21;7.38;;;3.90;;
40162;SDS011;25881;47.462;19.304;2023-04-03T08:32:46;4.60;;;3.20;;
40162;SDS011;25881;47.462;19.304;2023-04-03T08:35:12;5.00;;;3.47;;
40162;SDS011;25881;47.462;19.304;2023-04-03T08:37:37;3.93;;;2.70;;
40162;SDS011;25881;47.462;19.304;2023-04-03T08:40:04;4.97;;;3.58;;
40162;SDS011;25881;47.462;19.304;2023-04-03T08:42:34;4.10;;;3.10;;
40162;SDS011;25881;47.462;19.304;2023-04-03T08:45:04;10.65;;;3.20;;
40162;SDS011;25881;47.462;19.304;2023-04-03T08:47:42;4.10;;;3.00;;
40162;SDS011;25881;47.462;19.304;2023-04-03T08:50:17;4.68;;;2.63;;
40162;SDS011;25881;47.462;19.304;2023-04-03T08:52:44;3.78;;;2.63;;
40162;SDS011;25881;47.462;19.304;2023-04-03T08:55:24;4.63;;;3.28;;
40162;SDS011;25881;47.462;19.304;2023-04-03T08:57:59;4.47;;;2.60;;
40162;SDS011;25881;47.462;19.304;2023-04-03T09:00:26;3.83;;;2.58;;
40162;SDS011;25881;47.462;19.304;2023-04-03T09:02:54;5.43;;;2.58;;
40162;SDS011;25881;47.462;19.304;2023-04-03T09:06:07;4.70;;;2.45;;
40162;SDS011;25881;47.462;19.304;2023-04-03T09:08:09;3.47;;;2.28;;
40162;SDS011;25881;47.462;19.304;2023-04-03T09:10:37;3.63;;;2.60;;
40162;SDS011;25881;47.462;19.304;2023-04-03T09:15:47;4.35;;;2.78;;
40162;SDS011;25881;47.462;19.304;2023-04-03T09:18:16;3.38;;;2.40;;
40162;SDS011;25881;47.462;19.304;2023-04-03T09:23:42;2.88;;;2.15;;
40162;SDS011;25881;47.462;19.304;2023-04-03T09:26:09;5.32;;;2.90;;
40162;SDS011;25881;47.462;19.304;2023-04-03T09:28:37;9.05;;;2.60;;
40162;SDS011;25881;47.462;19.304;2023-04-03T09:31:06;2.85;;;2.05;;
40162;SDS011;25881;47.462;19.304;2023-04-03T09:33:36;2.88;;;1.98;;
40162;SDS011;25881;47.462;19.304;2023-04-03T09:36:02;8.70;;;2.53;;
40162;SDS011;25881;47.462;19.304;2023-04-03T09:38:27;3.80;;;2.28;;
40162;SDS011;25881;47.462;19.304;2023-04-03T09:41:04;1.93;;;1.60;;
40162;SDS011;25881;47.462;19.304;2023-04-03T09:43:30;2.40;;;1.60;;
40162;SDS011;25881;47.462;19.304;2023-04-03T09:45:56;2.75;;;1.83;;
40162;SDS011;25881;47.462;19.304;2023-04-03T09:48:23;2.10;;;1.30;;
40162;SDS011;25881;47.462;19.304;2023-04-03T09:56:01;4.43;;;2.95;;
40162;SDS011;25881;47.462;19.304;2023-04-03T09:58:37;5.72;;;3.55;;
40162;SDS011;25881;47.462;19.304;2023-04-03T10:01:05;3.88;;;2.58;;
40162;SDS011;25881;47.462;19.304;2023-04-03T10:03:35;7.47;;;4.32;;
40162;SDS011;25881;47.462;19.304;2023-04-03T10:06:01;7.85;;;4.47;;
40162;SDS011;25881;47.462;19.304;2023-04-03T10:08:30;5.53;;;3.55;;
40162;SDS011;25881;47.462;19.304;2023-04-03T10:11:07;6.07;;;3.13;;
40162;SDS011;25881;47.462;19.304;2023-04-03T10:13:32;6.47;;;3.85;;
40162;SDS011;25881;47.462;19.304;2023-04-03T10:16:03;4.40;;;3.05;;
40162;SDS011;25881;47.462;19.304;2023-04-03T10:18:42;3.58;;;2.70;;
40162;SDS011;25881;47.462;19.304;2023-04-03T10:21:10;5.55;;;3.15;;
40162;SDS011;25881;47.462;19.304;2023-04-03T10:36:25;5.93;;;3.53;;
40162;SDS011;25881;47.462;19.304;2023-04-03T10:46:53;4.10;;;3.00;;
40162;SDS011;25881;47.462;19.304;2023-04-03T10:57:04;2.87;;;1.80;;
40162;SDS011;25881;47.462;19.304;2023-04-03T10:59:35;3.50;;;2.03;;
40162;SDS011;25881;47.462;19.304;2023-04-03T11:04:47;3.42;;;2.28;;
40162;SDS011;25881;47.462;19.304;2023-04-03T11:09:42;6.65;;;2.38;;
40162;SDS011;25881;47.462;19.304;2023-04-03T11:12:17;3.88;;;2.58;;
40162;SDS011;25881;47.462;19.304;2023-04-03T11:14:43;5.13;;;2.53;;
40162;SDS011;25881;47.462;19.304;2023-04-03T11:19:38;3.97;;;2.77;;
40162;SDS011;25881;47.462;19.304;2023-04-03T11:22:15;2.80;;;2.05;;
40162;SDS011;25881;47.462;19.304;2023-04-03T11:24:42;3.40;;;2.30;;
40162;SDS011;25881;47.462;19.304;2023-04-03T11:27:11;2.50;;;2.00;;
40162;SDS011;25881;47.462;19.304;2023-04-03T11:29:40;2.92;;;1.98;;
40162;SDS011;25881;47.462;19.304;2023-04-03T11:34:51;3.88;;;2.42;;
40162;SDS011;25881;47.462;19.304;2023-04-03T11:39:49;3.55;;;2.25;;
40162;SDS011;25881;47.462;19.304;2023-04-03T11:44:41;4.40;;;2.25;;
40162;SDS011;25881;47.462;19.304;2023-04-03T11:47:11;3.28;;;2.30;;
40162;SDS011;25881;47.462;19.304;2023-04-03T11:52:39;3.83;;;2.25;;
40162;SDS011;25881;47.462;19.304;2023-04-03T11:55:00;3.83;;;2.63;;
40162;SDS011;25881;47.462;19.304;2023-04-03T11:57:45;7.53;;;2.33;;
40162;SDS011;25881;47.462;19.304;2023-04-03T12:02:54;3.53;;;2.30;;
40162;SDS011;25881;47.462;19.304;2023-04-03T12:05:27;2.83;;;2.17;;
40162;SDS011;25881;47.462;19.304;2023-04-03T12:10:37;3.63;;;2.25;;
40162;SDS011;25881;47.462;19.304;2023-04-03T12:13:12;5.97;;;2.03;;
40162;SDS011;25881;47.462;19.304;2023-04-03T12:18:31;4.72;;;2.65;;
40162;SDS011;25881;47.462;19.304;2023-04-03T12:20:57;4.22;;;2.80;;
40162;SDS011;25881;47.462;19.304;2023-04-03T12:25:51;3.25;;;1.88;;
40162;SDS011;25881;47.462;19.304;2023-04-03T12:28:16;2.50;;;1.83;;
40162;SDS011;25881;47.462;19.304;2023-04-03T12:30:42;2.08;;;1.40;;
40162;SDS011;25881;47.462;19.304;2023-04-03T12:33:13;2.13;;;1.55;;
40162;SDS011;25881;47.462;19.304;2023-04-03T12:35:44;2.83;;;1.70;;
40162;SDS011;25881;47.462;19.304;2023-04-03T12:48:24;2.75;;;1.70;;
40162;SDS011;25881;47.462;19.304;2023-04-03T12:50:51;2.10;;;1.50;;
40162;SDS011;25881;47.462;19.304;2023-04-03T12:53:18;4.75;;;1.83;;
40162;SDS011;25881;47.462;19.304;2023-04-03T12:55:44;2.40;;;1.60;;
40162;SDS011;25881;47.462;19.304;2023-04-03T12:58:16;2.50;;;1.55;;
40162;SDS011;25881;47.462;19.304;2023-04-03T13:00:42;1.65;;;1.27;;
40162;SDS011;25881;47.462;19.304;2023-04-03T13:03:15;1.88;;;1.25;;
40162;SDS011;25881;47.462;19.304;2023-04-03T13:05:45;1.83;;;1.30;;
40162;SDS011;25881;47.462;19.304;2023-04-03T13:08:12;4.28;;;1.38;;
40162;SDS011;25881;47.462;19.304;2023-04-03T13:10:49;1.52;;;1.20;;
40162;SDS011;25881;47.462;19.304;2023-04-03T13:13:16;1.88;;;1.42;;
40162;SDS011;25881;47.462;19.304;2023-04-03T13:15:45;3.73;;;1.93;;
40162;SDS011;25881;47.462;19.304;2023-04-03T13:20:56;1.98;;;1.20;;
40162;SDS011;25881;47.462;19.304;2023-04-03T13:25:48;1.10;;;1.00;;
40162;SDS011;25881;47.462;19.304;2023-04-03T13:28:16;2.05;;;1.42;;
40162;SDS011;25881;47.462;19.304;2023-04-03T13:30:54;2.15;;;1.55;;
40162;SDS011;25881;47.462;19.304;2023-04-03T13:33:24;5.70;;;1.52;;
40162;SDS011;25881;47.462;19.304;2023-04-03T13:35:54;4.03;;;1.60;;
40162;SDS011;25881;47.462;19.304;2023-04-03T13:38:25;2.17;;;1.70;;
40162;SDS011;25881;47.462;19.304;2023-04-03T13:40:52;2.42;;;1.48;;
40162;SDS011;25881;47.462;19.304;2023-04-03T13:43:19;4.72;;;1.80;;
40162;SDS011;25881;47.462;19.304;2023-04-03T13:48:21;1.70;;;1.10;;
40162;SDS011;25881;47.462;19.304;2023-04-03T13:53:19;1.95;;;1.30;;
40162;SDS011;25881;47.462;19.304;2023-04-03T13:58:29;3.75;;;1.63;;
40162;SDS011;25881;47.462;19.304;2023-04-03T14:00:56;2.50;;;1.42;;
40162;SDS011;25881;47.462;19.304;2023-04-03T14:05:49;2.63;;;1.38;;
40162;SDS011;25881;47.462;19.304;2023-04-03T14:08:15;1.52;;;1.40;;
40162;SDS011;25881;47.462;19.304;2023-04-03T14:10:41;2.38;;;1.70;;
40162;SDS011;25881;47.462;19.304;2023-04-03T14:13:08;3.50;;;1.65;;
40162;SDS011;25881;47.462;19.304;2023-04-03T14:15:34;1.40;;;1.23;;
40162;SDS011;25881;47.462;19.304;2023-04-03T14:17:59;1.88;;;1.15;;
40162;SDS011;25881;47.462;19.304;2023-04-03T14:20:26;2.13;;;1.25;;
40162;SDS011;25881;47.462;19.304;2023-04-03T14:22:51;2.15;;;1.50;;
40162;SDS011;25881;47.462;19.304;2023-04-03T14:25:18;2.45;;;1.55;;
40162;SDS011;25881;47.462;19.304;2023-04-03T14:27:47;2.08;;;1.52;;
40162;SDS011;25881;47.462;19.304;2023-04-03T14:30:24;2.42;;;1.60;;
40162;SDS011;25881;47.462;19.304;2023-04-03T14:32:50;6.35;;;3.35;;
40162;SDS011;25881;47.462;19.304;2023-04-03T14:35:16;4.68;;;2.97;;
40162;SDS011;25881;47.462;19.304;2023-04-03T14:37:42;3.33;;;2.10;;
40162;SDS011;25881;47.462;19.304;2023-04-03T14:40:08;3.70;;;1.60;;
40162;SDS011;25881;47.462;19.304;2023-04-03T14:42:35;1.90;;;1.35;;
40162;SDS011;25881;47.462;19.304;2023-04-03T14:45:02;1.92;;;1.30;;
40162;SDS011;25881;47.462;19.304;2023-04-03T14:47:28;5.43;;;3.38;;
40162;SDS011;25881;47.462;19.304;2023-04-03T14:49:54;1.35;;;0.93;;
40162;SDS011;25881;47.462;19.304;2023-04-03T14:52:21;1.13;;;1.00;;
40162;SDS011;25881;47.462;19.304;2023-04-03T14:54:46;2.75;;;1.55;;
40162;SDS011;25881;47.462;19.304;2023-04-03T14:57:12;4.45;;;2.90;;
40162;SDS011;25881;47.462;19.304;2023-04-03T14:59:38;7.25;;;3.60;;
40162;SDS011;25881;47.462;19.304;2023-04-03T15:02:10;2.95;;;2.00;;
40162;SDS011;25881;47.462;19.304;2023-04-03T15:04:38;3.00;;;1.20;;
40162;SDS011;25881;47.462;19.304;2023-04-03T15:07:03;3.05;;;1.25;;
40162;SDS011;25881;47.462;19.304;2023-04-03T15:09:29;0.90;;;0.90;;
40162;SDS011;25881;47.462;19.304;2023-04-03T15:11:54;1.48;;;1.10;;
40162;SDS011;25881;47.462;19.304;2023-04-03T15:14:20;3.35;;;2.30;;
40162;SDS011;25881;47.462;19.304;2023-04-03T15:16:45;2.92;;;1.70;;
40162;SDS011;25881;47.462;19.304;2023-04-03T15:19:11;3.05;;;1.80;;
40162;SDS011;25881;47.462;19.304;2023-04-03T15:21:36;1.50;;;1.13;;
40162;SDS011;25881;47.462;19.304;2023-04-03T15:24:01;2.70;;;1.55;;
40162;SDS011;25881;47.462;19.304;2023-04-03T15:26:27;7.97;;;3.60;;
40162;SDS011;25881;47.462;19.304;2023-04-03T15:28:52;2.28;;;1.67;;
40162;SDS011;25881;47.462;19.304;2023-04-03T15:31:17;3.13;;;1.50;;
40162;SDS011;25881;47.462;19.304;2023-04-03T15:33:43;3.93;;;1.87;;
40162;SDS011;25881;47.462;19.304;2023-04-03T15:36:08;5.50;;;2.50;;
40162;SDS011;25881;47.462;19.304;2023-04-03T15:38:34;13.05;;;10.40;;
40162;SDS011;25881;47.462;19.304;2023-04-03T15:40:59;3.40;;;2.55;;
40162;SDS011;25881;47.462;19.304;2023-04-03T15:43:25;4.10;;;2.45;;
40162;SDS011;25881;47.462;19.304;2023-04-03T15:45:50;4.20;;;2.10;;
40162;SDS011;25881;47.462;19.304;2023-04-03T15:48:16;3.75;;;1.95;;
40162;SDS011;25881;47.462;19.304;2023-04-03T15:50:41;1.95;;;1.40;;
40162;SDS011;25881;47.462;19.304;2023-04-03T15:53:07;2.88;;;1.77;;
40162;SDS011;25881;47.462;19.304;2023-04-03T15:55:34;3.47;;;1.83;;
40162;SDS011;25881;47.462;19.304;2023-04-03T15:57:59;2.55;;;1.67;;
40162;SDS011;25881;47.462;19.304;2023-04-03T16:00:25;3.58;;;1.90;;
40162;SDS011;25881;47.462;19.304;2023-04-03T16:02:52;4.00;;;2.15;;
40162;SDS011;25881;47.462;19.304;2023-04-03T16:05:18;4.35;;;2.35;;
40162;SDS011;25881;47.462;19.304;2023-04-03T16:07:44;3.55;;;1.80;;
40162;SDS011;25881;47.462;19.304;2023-04-03T16:10:10;9.85;;;4.22;;